| time (UTC) | temp C | wind direction | speed KPH | gust KPH | rain 1hr cm | rain 24hr cm | rain mn cm | humidity % | barometer mb |
| 20260510011743 | 26 | 171 | 4.8 | 6.4 | 0.00 | 0.00 | 0.00 | 41 | 1007.7 |
| 20260510011243 | 26 | 174 | 4.8 | 6.4 | 0.00 | 0.00 | 0.00 | 41 | 1007.7 |
| 20260510010743 | 26 | 172 | 3.2 | 3.2 | 0.00 | 0.00 | 0.00 | 41 | 1007.5 |
| 20260510010244 | 27 | 158 | 3.2 | 4.8 | 0.00 | 0.00 | 0.00 | 41 | 1007.5 |
| 20260510005743 | 27 | 158 | 4.8 | 6.4 | 0.00 | 0.00 | 0.00 | 41 | 1007.6 |
| 20260510005243 | 27 | 149 | 3.2 | 6.4 | 0.00 | 0.00 | 0.00 | 40 | 1007.7 |
| 20260510004743 | 27 | 165 | 8.0 | 9.7 | 0.00 | 0.00 | 0.00 | 40 | 1007.8 |
| 20260510004243 | 27 | 175 | 4.8 | 6.4 | 0.00 | 0.00 | 0.00 | 41 | 1007.9 |
| 20260510003743 | 27 | 183 | 4.8 | 4.8 | 0.00 | 0.00 | 0.00 | 41 | 1007.9 |
| 20260510003244 | 27 | 150 | 1.6 | 4.8 | 0.00 | 0.00 | 0.00 | 42 | 1007.8 |
| 20260510002743 | 27 | 157 | 4.8 | 6.4 | 0.00 | 0.00 | 0.00 | 42 | 1007.6 |
| 20260510002243 | 27 | 165 | 4.8 | 6.4 | 0.00 | 0.00 | 0.00 | 42 | 1007.6 |
| 20260510001743 | 27 | 169 | 4.8 | 9.7 | 0.00 | 0.00 | 0.00 | 42 | 1007.6 |
| 20260510001250 | 27 | 153 | 4.8 | 8.0 | 0.00 | 0.00 | 0.00 | 42 | 1007.7 |
| 20260510000743 | 28 | 160 | 6.4 | 9.7 | 0.00 | 0.00 | 0.00 | 41 | 1007.8 |
| 20260510000243 | 28 | 157 | 8.0 | 9.7 | 0.00 | 0.00 | 0.00 | 40 | 1007.8 |
| 20260509235744 | 28 | 155 | 6.4 | 12.9 | 0.00 | 0.00 | 0.00 | 40 | 1007.6 |
| 20260509235243 | 28 | 165 | 6.4 | 9.7 | 0.00 | 0.00 | 0.00 | 40 | 1007.7 |
| 20260509234743 | 28 | 141 | 3.2 | 6.4 | 0.00 | 0.00 | 0.00 | 39 | 1007.7 |
| 20260509234244 | 28 | 159 | 8.0 | 11.3 | 0.00 | 0.00 | 0.00 | 37 | 1007.8 |
| 20260509233744 | 28 | 146 | 4.8 | 8.0 | 0.00 | 0.00 | 0.00 | 37 | 1007.8 |
| 20260509233243 | 28 | 154 | 8.0 | 19.3 | 0.00 | 0.00 | 0.00 | 37 | 1007.8 |
| 20260509232743 | 28 | 160 | 4.8 | 8.0 | 0.00 | 0.00 | 0.00 | 35 | 1007.8 |
| 20260509232243 | 28 | 156 | 8.0 | 9.7 | 0.00 | 0.00 | 0.00 | 36 | 1007.8 |
| 20260509231743 | 28 | 168 | 8.0 | 12.9 | 0.00 | 0.00 | 0.00 | 36 | 1007.9 |
| 20260509231243 | 28 | 165 | 6.4 | 9.7 | 0.00 | 0.00 | 0.00 | 37 | 1007.9 |
| 20260509230743 | 28 | 168 | 9.7 | 12.9 | 0.00 | 0.00 | 0.00 | 38 | 1007.9 |
| 20260509230244 | 28 | 163 | 8.0 | 9.7 | 0.00 | 0.00 | 0.00 | 37 | 1008.0 |
| 20260509225743 | 28 | 158 | 8.0 | 9.7 | 0.00 | 0.00 | 0.00 | 37 | 1008.0 |
| 20260509225243 | 28 | 166 | 6.4 | 9.7 | 0.00 | 0.00 | 0.00 | 38 | 1008.0 |
| 20260509224743 | 28 | 156 | 6.4 | 11.3 | 0.00 | 0.00 | 0.00 | 37 | 1008.1 |
| 20260509224243 | 29 | 161 | 8.0 | 12.9 | 0.00 | 0.00 | 0.00 | 37 | 1008.2 |
| 20260509223743 | 29 | 177 | 3.2 | 8.0 | 0.00 | 0.00 | 0.00 | 37 | 1008.2 |
| 20260509223243 | 28 | 146 | 4.8 | 12.9 | 0.00 | 0.00 | 0.00 | 36 | 1008.4 |
| 20260509222743 | 28 | 166 | 9.7 | 11.3 | 0.00 | 0.00 | 0.00 | 34 | 1008.4 |
| 20260509222243 | 28 | 163 | 6.4 | 11.3 | 0.00 | 0.00 | 0.00 | 36 | 1008.5 |
| 20260509221743 | 28 | 113 | 1.6 | 3.2 | 0.00 | 0.00 | 0.00 | 36 | 1008.5 |
| 20260509221244 | 28 | 155 | 8.0 | 9.7 | 0.00 | 0.00 | 0.00 | 37 | 1008.5 |
| 20260509220744 | 28 | 151 | 3.2 | 8.0 | 0.00 | 0.00 | 0.00 | 35 | 1008.6 |
| 20260509220243 | 28 | 151 | 3.2 | 4.8 | 0.00 | 0.00 | 0.00 | 36 | 1008.6 |
| 20260509215743 | 28 | 155 | 6.4 | 9.7 | 0.00 | 0.00 | 0.00 | 36 | 1008.6 |
| 20260509215243 | 28 | 157 | 4.8 | 8.0 | 0.00 | 0.00 | 0.00 | 36 | 1008.6 |
| 20260509214745 | 28 | 155 | 8.0 | 9.7 | 0.00 | 0.00 | 0.00 | 35 | 1008.6 |
| 20260509214244 | 29 | 162 | 4.8 | 8.0 | 0.00 | 0.00 | 0.00 | 35 | 1008.6 |
| 20260509213743 | 29 | 163 | 4.8 | 8.0 | 0.00 | 0.00 | 0.00 | 36 | 1008.6 |
| 20260509213243 | 28 | 176 | 3.2 | 3.2 | 0.00 | 0.00 | 0.00 | 37 | 1008.6 |
| 20260509212745 | 28 | 202 | 3.2 | 6.4 | 0.00 | 0.00 | 0.00 | 36 | 1008.8 |
| 20260509212243 | 28 | 160 | 6.4 | 11.3 | 0.00 | 0.00 | 0.00 | 36 | 1008.9 |
| 20260509211744 | 28 | 164 | 3.2 | 6.4 | 0.00 | 0.00 | 0.00 | 35 | 1009.0 |
| 20260509211243 | 28 | 158 | 6.4 | 11.3 | 0.00 | 0.00 | 0.00 | 37 | 1009.1 |
| 20260509210744 | 28 | 155 | 6.4 | 9.7 | 0.00 | 0.00 | 0.00 | 36 | 1009.1 |
| 20260509210244 | 28 | 163 | 6.4 | 11.3 | 0.00 | 0.00 | 0.00 | 36 | 1009.1 |
| 20260509205743 | 28 | 2 | 1.6 | 4.8 | 0.00 | 0.00 | 0.00 | 36 | 1009.2 |
| 20260509205245 | 28 | 10 | 1.6 | 3.2 | 0.00 | 0.00 | 0.00 | 37 | 1009.2 |
| 20260509204743 | 28 | 172 | 6.4 | 11.3 | 0.00 | 0.00 | 0.00 | 35 | 1009.3 |
| 20260509204244 | 28 | 153 | 6.4 | 9.7 | 0.00 | 0.00 | 0.00 | 36 | 1009.3 |
| 20260509203743 | 28 | 169 | 6.4 | 12.9 | 0.00 | 0.00 | 0.00 | 36 | 1009.3 |
| 20260509203243 | 28 | 309 | 1.6 | 3.2 | 0.00 | 0.00 | 0.00 | 37 | 1009.3 |
| 20260509202744 | 28 | 356 | 3.2 | 3.2 | 0.00 | 0.00 | 0.00 | 36 | 1009.4 |
| 20260509202243 | 28 | 163 | 1.6 | 3.2 | 0.00 | 0.00 | 0.00 | 33 | 1009.5 |
| 20260509201743 | 28 | 143 | 0.0 | 1.6 | 0.00 | 0.00 | 0.00 | 34 | 1009.5 |
| 20260509201243 | 28 | 14 | 1.6 | 3.2 | 0.00 | 0.00 | 0.00 | 33 | 1009.5 |
| 20260509200743 | 28 | 158 | 3.2 | 6.4 | 0.00 | 0.00 | 0.00 | 33 | 1009.6 |
| 20260509200243 | 28 | 163 | 0.0 | 3.2 | 0.00 | 0.00 | 0.00 | 33 | 1009.7 |
| 20260509195744 | 28 | 169 | 4.8 | 6.4 | 0.00 | 0.00 | 0.00 | 33 | 1009.8 |
| 20260509195244 | 28 | 161 | 4.8 | 11.3 | 0.00 | 0.00 | 0.00 | 34 | 1009.9 |
| 20260509194743 | 28 | 12 | 3.2 | 4.8 | 0.00 | 0.00 | 0.00 | 33 | 1009.9 |
| 20260509194243 | 28 | 214 | 3.2 | 4.8 | 0.00 | 0.00 | 0.00 | 35 | 1009.9 |
| 20260509193743 | 28 | 13 | 1.6 | 3.2 | 0.00 | 0.00 | 0.00 | 34 | 1009.9 |
| 20260509193243 | 28 | 157 | 4.8 | 8.0 | 0.00 | 0.00 | 0.00 | 34 | 1010.0 |
| 20260509192743 | 28 | 323 | 3.2 | 4.8 | 0.00 | 0.00 | 0.00 | 32 | 1010.1 |
| 20260509192243 | 28 | 307 | 3.2 | 4.8 | 0.00 | 0.00 | 0.00 | 33 | 1010.1 |
| 20260509191743 | 28 | 16 | 3.2 | 3.2 | 0.00 | 0.00 | 0.00 | 35 | 1010.1 |
| 20260509191245 | 28 | 354 | 3.2 | 6.4 | 0.00 | 0.00 | 0.00 | 35 | 1010.2 |
| 20260509190744 | 28 | 157 | 3.2 | 9.7 | 0.00 | 0.00 | 0.00 | 33 | 1010.3 |
| 20260509190243 | 28 | 219 | 3.2 | 6.4 | 0.00 | 0.00 | 0.00 | 33 | 1010.3 |
| 20260509185743 | 28 | 144 | 4.8 | 12.9 | 0.00 | 0.00 | 0.00 | 33 | 1010.4 |
| 20260509185244 | 28 | 170 | 4.8 | 9.7 | 0.00 | 0.00 | 0.00 | 33 | 1010.4 |
| 20260509184744 | 28 | 147 | 3.2 | 6.4 | 0.00 | 0.00 | 0.00 | 34 | 1010.5 |
| 20260509184244 | 28 | 350 | 0.0 | 1.6 | 0.00 | 0.00 | 0.00 | 30 | 1010.5 |
| 20260509183743 | 28 | 152 | 1.6 | 3.2 | 0.00 | 0.00 | 0.00 | 32 | 1010.6 |
| 20260509183243 | 28 | 168 | 4.8 | 6.4 | 0.00 | 0.00 | 0.00 | 32 | 1010.6 |
| 20260509182744 | 28 | 174 | 4.8 | 6.4 | 0.00 | 0.00 | 0.00 | 36 | 1010.6 |
| 20260509182245 | 27 | 147 | 1.6 | 1.6 | 0.00 | 0.00 | 0.00 | 30 | 1010.7 |
| 20260509181743 | 27 | 155 | 6.4 | 8.0 | 0.00 | 0.00 | 0.00 | 31 | 1010.8 |
| 20260509181245 | 27 | 169 | 3.2 | 6.4 | 0.00 | 0.00 | 0.00 | 34 | 1010.8 |
| 20260509180743 | 27 | 165 | 3.2 | 6.4 | 0.00 | 0.00 | 0.00 | 37 | 1011.0 |
| 20260509180243 | 27 | 150 | 4.8 | 8.0 | 0.00 | 0.00 | 0.00 | 36 | 1011.0 |
| 20260509175748 | 27 | 153 | 6.4 | 12.9 | 0.00 | 0.00 | 0.00 | 37 | 1011.1 |
| 20260509175243 | 27 | 164 | 6.4 | 6.4 | 0.00 | 0.00 | 0.00 | 39 | 1011.2 |
| 20260509174745 | 27 | 20 | 1.6 | 1.6 | 0.00 | 0.00 | 0.00 | 42 | 1011.3 |
| 20260509174247 | 27 | 167 | 3.2 | 4.8 | 0.00 | 0.00 | 0.00 | 41 | 1011.4 |
| 20260509173744 | 27 | 175 | 3.2 | 4.8 | 0.00 | 0.00 | 0.00 | 43 | 1011.4 |
| 20260509173243 | 26 | 177 | 1.6 | 3.2 | 0.00 | 0.00 | 0.00 | 42 | 1011.4 |
| 20260509172743 | 27 | 163 | 9.7 | 11.3 | 0.00 | 0.00 | 0.00 | 41 | 1011.7 |
| 20260509172243 | 27 | 163 | 3.2 | 3.2 | 0.00 | 0.00 | 0.00 | 42 | 1011.7 |
| 20260509171743 | 27 | 350 | 3.2 | 3.2 | 0.00 | 0.00 | 0.00 | 40 | 1011.7 |
| 20260509171244 | 27 | 172 | 0.0 | 1.6 | 0.00 | 0.00 | 0.00 | 41 | 1011.8 |
| 20260509170743 | 26 | 163 | 1.6 | 3.2 | 0.00 | 0.00 | 0.00 | 44 | 1011.8 |
| 20260509170245 | 26 | 144 | 3.2 | 4.8 | 0.00 | 0.00 | 0.00 | 47 | 1011.9 |
| 20260509165744 | 26 | 163 | 1.6 | 3.2 | 0.00 | 0.00 | 0.00 | 50 | 1011.9 |
| 20260509165243 | 26 | 289 | 0.0 | 1.6 | 0.00 | 0.00 | 0.00 | 52 | 1012.0 |
| 20260509164745 | 26 | 148 | 3.2 | 4.8 | 0.00 | 0.00 | 0.00 | 51 | 1011.9 |
| 20260509163745 | 25 | 143 | 1.6 | 4.8 | 0.00 | 0.00 | 0.00 | 55 | 1012.0 |
| 20260509163243 | 25 | 320 | 3.2 | 4.8 | 0.00 | 0.00 | 0.00 | 54 | 1012.0 |
| 20260509162744 | 24 | 185 | 1.6 | 3.2 | 0.00 | 0.00 | 0.00 | 60 | 1012.1 |
| 20260509162244 | 24 | 149 | 3.2 | 3.2 | 0.00 | 0.00 | 0.00 | 60 | 1012.2 |
| 20260509161746 | 23 | 158 | 6.4 | 8.0 | 0.00 | 0.00 | 0.00 | 56 | 1012.2 |
| 20260509161243 | 23 | 150 | 1.6 | 4.8 | 0.00 | 0.00 | 0.00 | 63 | 1012.2 |
| 20260509160743 | 23 | 167 | 4.8 | 8.0 | 0.00 | 0.00 | 0.00 | 65 | 1012.3 |
| 20260509160245 | 23 | 123 | 1.6 | 3.2 | 0.00 | 0.00 | 0.00 | 66 | 1012.3 |
| 20260509155744 | 22 | 34 | 1.6 | 3.2 | 0.00 | 0.00 | 0.00 | 68 | 1012.1 |
| 20260509155250 | 22 | 160 | 3.2 | 4.8 | 0.00 | 0.00 | 0.00 | 70 | 1012.1 |
| 20260509154744 | 22 | 161 | 3.2 | 4.8 | 0.00 | 0.00 | 0.00 | 68 | 1012.1 |
| 20260509154244 | 22 | 163 | 4.8 | 6.4 | 0.00 | 0.00 | 0.00 | 67 | 1012.0 |
| 20260509153743 | 22 | 148 | 0.0 | 1.6 | 0.00 | 0.00 | 0.00 | 69 | 1012.3 |
| 20260509153244 | 22 | 159 | 3.2 | 4.8 | 0.00 | 0.00 | 0.00 | 68 | 1012.0 |
| 20260509152744 | 22 | 176 | 4.8 | 6.4 | 0.00 | 0.00 | 0.00 | 69 | 1012.2 |
| 20260509152243 | 22 | 161 | 4.8 | 6.4 | 0.00 | 0.00 | 0.00 | 66 | 1011.9 |
| 20260509151744 | 21 | 151 | 3.2 | 3.2 | 0.00 | 0.00 | 0.00 | 70 | 1012.0 |
| 20260509151244 | 21 | 270 | 1.6 | 3.2 | 0.00 | 0.00 | 0.00 | 70 | 1012.1 |
| 20260509150744 | 21 | 168 | 4.8 | 6.4 | 0.00 | 0.00 | 0.00 | 71 | 1012.0 |
| 20260509150244 | 21 | 30 | 1.6 | 1.6 | 0.00 | 0.00 | 0.00 | 72 | 1012.0 |
| 20260509145744 | 21 | 171 | 3.2 | 4.8 | 0.00 | 0.00 | 0.00 | 73 | 1012.0 |
| 20260509145243 | 21 | 131 | 3.2 | 3.2 | 0.00 | 0.00 | 0.00 | 75 | 1012.0 |
| 20260509144744 | 20 | 29 | 1.6 | 1.6 | 0.00 | 0.00 | 0.00 | 79 | 1011.9 |
| 20260509144243 | 20 | 151 | 1.6 | 3.2 | 0.00 | 0.00 | 0.00 | 79 | 1011.8 |
| 20260509143743 | 20 | 22 | 1.6 | 3.2 | 0.00 | 0.00 | 0.00 | 80 | 1011.9 |
| 20260509143244 | 20 | 149 | 3.2 | 6.4 | 0.00 | 0.00 | 0.00 | 80 | 1012.1 |
| 20260509142743 | 20 | 130 | 3.2 | 6.4 | 0.00 | 0.00 | 0.00 | 80 | 1012.0 |
| 20260509142243 | 19 | 27 | 1.6 | 1.6 | 0.00 | 0.00 | 0.00 | 82 | 1012.1 |
| 20260509141743 | 19 | 43 | 1.6 | 3.2 | 0.00 | 0.00 | 0.00 | 83 | 1012.2 |
| 20260509141243 | 18 | 43 | 1.6 | 1.6 | 0.00 | 0.00 | 0.00 | 83 | 1012.2 |
| 20260509140743 | 18 | 20 | 1.6 | 1.6 | 0.00 | 0.00 | 0.00 | 84 | 1012.2 |
| 20260509140245 | 18 | 0 | 0.0 | 0.0 | 0.00 | 0.00 | 0.00 | 87 | 1012.2 |
| 20260509135744 | 17 | 306 | 0.0 | 0.0 | 0.00 | 0.00 | 0.00 | 89 | 1012.1 |
| 20260509135243 | 17 | 15 | 0.0 | 0.0 | 0.00 | 0.00 | 0.00 | 90 | 1012.1 |
| 20260509134745 | 17 | 72 | 0.0 | 0.0 | 0.00 | 0.00 | 0.00 | 90 | 1012.0 |
| 20260509134245 | 16 | 31 | 1.6 | 3.2 | 0.00 | 0.00 | 0.00 | 91 | 1012.0 |
| 20260509133743 | 16 | 35 | 1.6 | 1.6 | 0.00 | 0.00 | 0.00 | 91 | 1011.9 |
| 20260509133247 | 16 | 5 | 0.0 | 0.0 | 0.00 | 0.00 | 0.00 | 90 | 1011.8 |
| 20260509132745 | 16 | 0 | 0.0 | 0.0 | 0.00 | 0.00 | 0.00 | 91 | 1011.8 |
| 20260509132243 | 16 | 147 | 1.6 | 3.2 | 0.00 | 0.00 | 0.00 | 91 | 1011.8 |
| 20260509131744 | 15 | 0 | 0.0 | 0.0 | 0.00 | 0.00 | 0.00 | 90 | 1011.8 |
| 20260509131244 | 15 | 0 | 0.0 | 0.0 | 0.00 | 0.00 | 0.00 | 90 | 1011.6 |
| 20260509130747 | 15 | 0 | 0.0 | 0.0 | 0.00 | 0.00 | 0.00 | 91 | 1011.6 |
| 20260509130244 | 15 | 0 | 0.0 | 0.0 | 0.00 | 0.00 | 0.00 | 92 | 1011.6 |
| 20260509125743 | 15 | 130 | 0.0 | 1.6 | 0.00 | 0.00 | 0.00 | 92 | 1011.4 |
| 20260509125243 | 15 | 0 | 0.0 | 0.0 | 0.00 | 0.00 | 0.00 | 92 | 1011.4 |
| 20260509124743 | 15 | 0 | 0.0 | 0.0 | 0.00 | 0.00 | 0.00 | 93 | 1011.3 |
| 20260509124244 | 15 | 176 | 1.6 | 1.6 | 0.00 | 0.00 | 0.00 | 92 | 1011.2 |
| 20260509123744 | 15 | 0 | 0.0 | 0.0 | 0.00 | 0.00 | 0.00 | 92 | 1011.2 |
| 20260509123246 | 14 | 0 | 0.0 | 0.0 | 0.00 | 0.00 | 0.00 | 92 | 1011.2 |
| 20260509122744 | 14 | 0 | 0.0 | 0.0 | 0.00 | 0.00 | 0.00 | 92 | 1011.1 |
| 20260509122246 | 15 | 341 | 1.6 | 1.6 | 0.00 | 0.00 | 0.00 | 91 | 1011.1 |
| 20260509121743 | 15 | 5 | 0.0 | 1.6 | 0.00 | 0.00 | 0.00 | 91 | 1011.1 |
| 20260509121243 | 15 | 0 | 0.0 | 0.0 | 0.00 | 0.00 | 0.00 | 91 | 1011.1 |
| 20260509120743 | 15 | 0 | 0.0 | 0.0 | 0.00 | 0.00 | 0.00 | 92 | 1011.1 |
| 20260509120243 | 15 | 0 | 0.0 | 0.0 | 0.00 | 0.00 | 0.00 | 92 | 1011.0 |
| 20260509115743 | 15 | 177 | 0.0 | 1.6 | 0.00 | 0.00 | 0.00 | 92 | 1010.8 |
| 20260509115243 | 15 | 0 | 0.0 | 0.0 | 0.00 | 0.00 | 0.00 | 92 | 1010.8 |
| 20260509114744 | 15 | 0 | 0.0 | 0.0 | 0.00 | 0.00 | 0.00 | 92 | 1010.8 |
| 20260509114243 | 14 | 0 | 0.0 | 0.0 | 0.00 | 0.00 | 0.00 | 92 | 1010.8 |
| 20260509113744 | 14 | 180 | 0.0 | 1.6 | 0.00 | 0.00 | 0.00 | 92 | 1010.7 |
| 20260509113245 | 14 | 189 | 1.6 | 1.6 | 0.00 | 0.00 | 0.00 | 92 | 1010.6 |
| 20260509112743 | 14 | 183 | 0.0 | 1.6 | 0.00 | 0.00 | 0.00 | 93 | 1010.6 |
| 20260509112244 | 14 | 0 | 0.0 | 0.0 | 0.00 | 0.00 | 0.00 | 93 | 1010.6 |
| 20260509111745 | 14 | 0 | 0.0 | 0.0 | 0.00 | 0.00 | 0.00 | 91 | 1010.5 |
| 20260509111243 | 15 | 0 | 0.0 | 0.0 | 0.00 | 0.00 | 0.00 | 91 | 1010.4 |
| 20260509110743 | 15 | 0 | 0.0 | 0.0 | 0.00 | 0.00 | 0.00 | 91 | 1010.3 |
| 20260509110243 | 15 | 0 | 0.0 | 0.0 | 0.00 | 0.00 | 0.00 | 91 | 1010.3 |
| 20260509105743 | 15 | 0 | 0.0 | 0.0 | 0.00 | 0.00 | 0.00 | 91 | 1010.4 |
| 20260509105244 | 15 | 0 | 0.0 | 0.0 | 0.00 | 0.00 | 0.00 | 90 | 1010.5 |
| 20260509104743 | 15 | 0 | 0.0 | 0.0 | 0.00 | 0.00 | 0.00 | 90 | 1010.4 |
| 20260509104245 | 15 | 0 | 0.0 | 0.0 | 0.00 | 0.00 | 0.00 | 90 | 1010.4 |
| 20260509103743 | 15 | 0 | 0.0 | 0.0 | 0.00 | 0.00 | 0.00 | 90 | 1010.5 |
| 20260509103243 | 15 | 0 | 0.0 | 0.0 | 0.00 | 0.00 | 0.00 | 90 | 1010.5 |
| 20260509102743 | 15 | 0 | 0.0 | 0.0 | 0.00 | 0.00 | 0.00 | 90 | 1010.6 |
| 20260509102244 | 15 | 0 | 0.0 | 0.0 | 0.00 | 0.00 | 0.00 | 90 | 1010.5 |
| 20260509101743 | 15 | 164 | 0.0 | 1.6 | 0.00 | 0.00 | 0.00 | 90 | 1010.6 |
| 20260509101243 | 15 | 161 | 0.0 | 0.0 | 0.00 | 0.00 | 0.00 | 91 | 1010.7 |
| 20260509100743 | 15 | 161 | 0.0 | 1.6 | 0.00 | 0.00 | 0.00 | 91 | 1010.8 |
| 20260509100246 | 15 | 164 | 0.0 | 1.6 | 0.00 | 0.00 | 0.00 | 91 | 1010.9 |
| 20260509095743 | 15 | 0 | 0.0 | 0.0 | 0.00 | 0.00 | 0.00 | 90 | 1010.9 |
| 20260509095243 | 15 | 0 | 0.0 | 0.0 | 0.00 | 0.00 | 0.00 | 90 | 1010.9 |
| 20260509094743 | 15 | 0 | 0.0 | 0.0 | 0.00 | 0.00 | 0.00 | 90 | 1011.0 |
| 20260509094245 | 16 | 0 | 0.0 | 0.0 | 0.00 | 0.00 | 0.00 | 90 | 1011.0 |
| 20260509093743 | 16 | 0 | 0.0 | 0.0 | 0.00 | 0.00 | 0.00 | 91 | 1011.1 |
| 20260509093244 | 16 | 155 | 1.6 | 1.6 | 0.00 | 0.00 | 0.00 | 90 | 1011.1 |
| 20260509092744 | 16 | 0 | 0.0 | 0.0 | 0.00 | 0.00 | 0.00 | 90 | 1011.1 |
| 20260509092244 | 16 | 0 | 0.0 | 0.0 | 0.00 | 0.00 | 0.00 | 91 | 1011.0 |
| 20260509091743 | 16 | 0 | 0.0 | 0.0 | 0.00 | 0.00 | 0.00 | 91 | 1010.9 |
| 20260509091245 | 16 | 0 | 0.0 | 0.0 | 0.00 | 0.00 | 0.00 | 91 | 1010.9 |
| 20260509090744 | 16 | 50 | 0.0 | 1.6 | 0.00 | 0.00 | 0.00 | 90 | 1010.9 |
| 20260509090244 | 16 | 0 | 0.0 | 0.0 | 0.00 | 0.00 | 0.00 | 90 | 1011.1 |
| 20260509085743 | 16 | 143 | 1.6 | 1.6 | 0.00 | 0.00 | 0.00 | 90 | 1011.1 |
| 20260509085243 | 16 | 0 | 0.0 | 0.0 | 0.00 | 0.00 | 0.00 | 89 | 1011.1 |
| 20260509084743 | 16 | 0 | 0.0 | 0.0 | 0.00 | 0.00 | 0.00 | 90 | 1011.0 |
| 20260509084245 | 16 | 0 | 0.0 | 0.0 | 0.00 | 0.00 | 0.00 | 90 | 1010.9 |
| 20260509083744 | 16 | 0 | 0.0 | 0.0 | 0.00 | 0.00 | 0.00 | 90 | 1010.8 |
| 20260509083245 | 16 | 0 | 0.0 | 0.0 | 0.00 | 0.00 | 0.00 | 90 | 1010.9 |
| 20260509082743 | 16 | 0 | 0.0 | 0.0 | 0.00 | 0.00 | 0.00 | 91 | 1010.8 |
| 20260509082243 | 16 | 0 | 0.0 | 0.0 | 0.00 | 0.00 | 0.00 | 91 | 1010.8 |
| 20260509081743 | 16 | 0 | 0.0 | 0.0 | 0.00 | 0.00 | 0.00 | 90 | 1010.9 |
| 20260509081244 | 16 | 0 | 0.0 | 0.0 | 0.00 | 0.00 | 0.00 | 91 | 1010.8 |
| 20260509080744 | 16 | 0 | 0.0 | 0.0 | 0.00 | 0.00 | 0.00 | 91 | 1010.9 |
| 20260509080243 | 16 | 0 | 0.0 | 0.0 | 0.00 | 0.00 | 0.00 | 91 | 1011.0 |
| 20260509075743 | 16 | 0 | 0.0 | 0.0 | 0.00 | 0.00 | 0.00 | 90 | 1011.2 |
| 20260509075243 | 16 | 0 | 0.0 | 0.0 | 0.00 | 0.00 | 0.00 | 90 | 1011.3 |
| 20260509074743 | 16 | 43 | 1.6 | 1.6 | 0.00 | 0.00 | 0.00 | 91 | 1011.3 |
| 20260509074243 | 16 | 0 | 0.0 | 0.0 | 0.00 | 0.00 | 0.00 | 90 | 1011.3 |
| 20260509073744 | 16 | 99 | 0.0 | 0.0 | 0.00 | 0.00 | 0.00 | 91 | 1011.4 |
| 20260509073243 | 16 | 114 | 0.0 | 0.0 | 0.00 | 0.00 | 0.00 | 92 | 1011.7 |
| 20260509072745 | 16 | 137 | 3.2 | 3.2 | 0.00 | 0.00 | 0.00 | 91 | 1011.6 |
| 20260509072243 | 16 | 0 | 0.0 | 0.0 | 0.00 | 0.00 | 0.00 | 90 | 1011.6 |
| 20260509071744 | 16 | 23 | 0.0 | 0.0 | 0.00 | 0.00 | 0.00 | 90 | 1011.6 |
| 20260509071243 | 17 | 75 | 1.6 | 1.6 | 0.00 | 0.00 | 0.00 | 89 | 1011.6 |
| 20260509070743 | 16 | 0 | 0.0 | 0.0 | 0.00 | 0.00 | 0.00 | 90 | 1011.4 |
| 20260509070243 | 16 | 142 | 1.6 | 3.2 | 0.00 | 0.00 | 0.00 | 90 | 1011.4 |
| 20260509065743 | 17 | 0 | 0.0 | 0.0 | 0.00 | 0.00 | 0.00 | 89 | 1011.4 |
| 20260509065243 | 16 | 0 | 0.0 | 0.0 | 0.00 | 0.00 | 0.00 | 90 | 1011.4 |
| 20260509064743 | 16 | 115 | 0.0 | 0.0 | 0.00 | 0.00 | 0.00 | 90 | 1011.4 |
| 20260509064243 | 16 | 142 | 1.6 | 3.2 | 0.00 | 0.00 | 0.00 | 90 | 1011.4 |
| 20260509063745 | 16 | 154 | 3.2 | 6.4 | 0.00 | 0.00 | 0.00 | 90 | 1011.3 |
| 20260509063243 | 17 | 156 | 4.8 | 6.4 | 0.00 | 0.00 | 0.00 | 89 | 1011.3 |
| 20260509062744 | 17 | 152 | 3.2 | 3.2 | 0.00 | 0.00 | 0.00 | 89 | 1011.7 |
| 20260509062243 | 17 | 150 | 1.6 | 3.2 | 0.00 | 0.00 | 0.00 | 88 | 1011.8 |
| 20260509061743 | 17 | 162 | 3.2 | 3.2 | 0.00 | 0.00 | 0.00 | 88 | 1011.7 |
| 20260509061243 | 17 | 158 | 3.2 | 4.8 | 0.00 | 0.00 | 0.00 | 89 | 1011.7 |
| 20260509060744 | 17 | 155 | 3.2 | 3.2 | 0.00 | 0.00 | 0.00 | 89 | 1011.8 |
| 20260509060243 | 17 | 152 | 1.6 | 3.2 | 0.00 | 0.00 | 0.00 | 88 | 1011.7 |
| 20260509055743 | 17 | 166 | 0.0 | 0.0 | 0.00 | 0.00 | 0.00 | 87 | 1011.7 |
| 20260509055243 | 17 | 0 | 0.0 | 0.0 | 0.00 | 0.00 | 0.00 | 87 | 1011.6 |
| 20260509054743 | 17 | 0 | 0.0 | 0.0 | 0.00 | 0.00 | 0.00 | 87 | 1011.4 |
| 20260509054243 | 17 | 124 | 0.0 | 0.0 | 0.00 | 0.00 | 0.00 | 88 | 1011.4 |
| 20260509053745 | 17 | 0 | 0.0 | 0.0 | 0.00 | 0.00 | 0.00 | 87 | 1011.4 |
| 20260509053244 | 17 | 0 | 0.0 | 0.0 | 0.00 | 0.00 | 0.00 | 87 | 1011.4 |
| 20260509052743 | 17 | 223 | 0.0 | 1.6 | 0.00 | 0.00 | 0.00 | 88 | 1011.4 |
| 20260509052243 | 17 | 0 | 0.0 | 0.0 | 0.00 | 0.00 | 0.00 | 88 | 1011.4 |
| 20260509051743 | 17 | 163 | 3.2 | 3.2 | 0.00 | 0.00 | 0.00 | 88 | 1011.6 |
| 20260509051243 | 17 | 0 | 0.0 | 0.0 | 0.00 | 0.00 | 0.00 | 88 | 1011.6 |
| 20260509050743 | 17 | 0 | 0.0 | 0.0 | 0.00 | 0.00 | 0.00 | 88 | 1011.4 |
| 20260509050244 | 17 | 25 | 0.0 | 0.0 | 0.00 | 0.00 | 0.00 | 88 | 1011.4 |
| 20260509045744 | 17 | 42 | 1.6 | 1.6 | 0.00 | 0.00 | 0.71 | 88 | 1011.4 |
| 20260509045243 | 17 | 0 | 0.0 | 0.0 | 0.00 | 0.00 | 0.71 | 88 | 1011.4 |
| 20260509044744 | 17 | 165 | 3.2 | 6.4 | 0.00 | 0.00 | 0.71 | 88 | 1011.7 |
| 20260509044245 | 17 | 178 | 1.6 | 3.2 | 0.00 | 0.00 | 0.71 | 89 | 1011.7 |
| 20260509043743 | 17 | 3 | 0.0 | 0.0 | 0.00 | 0.00 | 0.71 | 89 | 1011.7 |
| 20260509043243 | 18 | 0 | 0.0 | 0.0 | 0.00 | 0.00 | 0.71 | 89 | 1011.7 |
| 20260509042743 | 18 | 19 | 0.0 | 1.6 | 0.00 | 0.00 | 0.71 | 88 | 1011.7 |
| 20260509042243 | 18 | 78 | 0.0 | 0.0 | 0.00 | 0.00 | 0.71 | 88 | 1011.8 |
| 20260509041745 | 18 | 0 | 0.0 | 0.0 | 0.00 | 0.00 | 0.71 | 88 | 1011.6 |
| 20260509041244 | 18 | 199 | 0.0 | 1.6 | 0.00 | 0.00 | 0.71 | 89 | 1011.4 |
| 20260509040743 | 18 | 177 | 4.8 | 6.4 | 0.00 | 0.00 | 0.71 | 89 | 1011.4 |
| 20260509040243 | 18 | 160 | 3.2 | 3.2 | 0.00 | 0.00 | 0.71 | 90 | 1011.4 |
| 20260509035744 | 18 | 0 | 0.0 | 0.0 | 0.00 | 0.00 | 0.71 | 90 | 1011.2 |
| 20260509035244 | 18 | 26 | 0.0 | 0.0 | 0.00 | 0.00 | 0.71 | 90 | 1011.2 |
| 20260509034744 | 18 | 150 | 0.0 | 0.0 | 0.00 | 0.00 | 0.71 | 90 | 1011.1 |
| 20260509034243 | 18 | 268 | 1.6 | 3.2 | 0.00 | 0.00 | 0.71 | 90 | 1011.0 |
| 20260509033744 | 18 | 149 | 0.0 | 0.0 | 0.00 | 0.00 | 0.71 | 90 | 1010.8 |
| 20260509033243 | 18 | 162 | 4.8 | 4.8 | 0.00 | 0.00 | 0.71 | 89 | 1010.7 |
| 20260509032743 | 18 | 0 | 0.0 | 0.0 | 0.00 | 0.00 | 0.71 | 88 | 1010.5 |
| 20260509032243 | 18 | 0 | 0.0 | 0.0 | 0.00 | 0.00 | 0.71 | 89 | 1010.4 |
| 20260509031744 | 18 | 0 | 0.0 | 0.0 | 0.00 | 0.00 | 0.71 | 89 | 1010.3 |
| 20260509031243 | 18 | 146 | 1.6 | 3.2 | 0.00 | 0.00 | 0.71 | 89 | 1010.3 |
| 20260509030743 | 18 | 0 | 0.0 | 0.0 | 0.00 | 0.00 | 0.71 | 88 | 1010.1 |
| 20260509030244 | 18 | 0 | 0.0 | 0.0 | 0.00 | 0.00 | 0.71 | 88 | 1010.0 |
| 20260509025745 | 18 | 0 | 0.0 | 0.0 | 0.00 | 0.00 | 0.71 | 88 | 1009.9 |
| 20260509025245 | 18 | 0 | 0.0 | 0.0 | 0.00 | 0.00 | 0.71 | 88 | 1009.8 |
| 20260509024745 | 19 | 0 | 0.0 | 0.0 | 0.00 | 0.00 | 0.71 | 88 | 1009.8 |
| 20260509024243 | 19 | 175 | 1.6 | 1.6 | 0.00 | 0.00 | 0.71 | 88 | 1009.8 |
| 20260509023743 | 19 | 13 | 0.0 | 1.6 | 0.00 | 0.00 | 0.71 | 87 | 1009.7 |
| 20260509023243 | 19 | 0 | 0.0 | 0.0 | 0.00 | 0.00 | 0.71 | 86 | 1009.7 |
| 20260509022743 | 19 | 21 | 0.0 | 1.6 | 0.00 | 0.00 | 0.71 | 85 | 1009.6 |
| 20260509022245 | 20 | 131 | 1.6 | 1.6 | 0.00 | 0.00 | 0.71 | 84 | 1009.5 |
| 20260509021743 | 20 | 38 | 1.6 | 1.6 | 0.00 | 0.00 | 0.71 | 83 | 1009.6 |
| 20260509021243 | 20 | 134 | 1.6 | 3.2 | 0.00 | 0.00 | 0.71 | 81 | 1009.3 |
| 20260509020745 | 20 | 127 | 1.6 | 1.6 | 0.00 | 0.00 | 0.71 | 82 | 1009.2 |
| 20260509020244 | 20 | 30 | 1.6 | 1.6 | 0.00 | 0.00 | 0.71 | 82 | 1009.1 |
| 20260509015744 | 20 | 112 | 1.6 | 1.6 | 0.00 | 0.00 | 0.71 | 82 | 1009.0 |
| 20260509015245 | 20 | 128 | 1.6 | 1.6 | 0.00 | 0.00 | 0.71 | 81 | 1008.9 |
| 20260509014743 | 20 | 117 | 1.6 | 1.6 | 0.00 | 0.00 | 0.71 | 80 | 1008.9 |
| 20260509014243 | 20 | 144 | 1.6 | 1.6 | 0.00 | 0.00 | 0.71 | 79 | 1008.6 |
| 20260509013743 | 20 | 0 | 0.0 | 0.0 | 0.00 | 0.00 | 0.71 | 79 | 1008.4 |
| 20260509013243 | 20 | 0 | 0.0 | 0.0 | 0.00 | 0.00 | 0.71 | 79 | 1008.3 |
| 20260509012743 | 20 | 0 | 0.0 | 0.0 | 0.00 | 0.00 | 0.71 | 80 | 1008.2 |
| 20260509012243 | 20 | 51 | 0.0 | 1.6 | 0.00 | 0.00 | 0.71 | 80 | 1008.3 |